createdAt,value
2022-10-22T00:00:13.485Z,9.719233
2022-10-22T00:01:15.986Z,9.719165
2022-10-22T00:02:13.441Z,9.719225
2022-10-22T00:03:13.436Z,9.719283
2022-10-22T00:04:13.426Z,9.719205
2022-10-22T00:05:13.482Z,9.719188
2022-10-22T00:06:13.394Z,9.719110
2022-10-22T00:07:14.378Z,9.719150
2022-10-22T00:08:14.376Z,9.719232
2022-10-22T00:09:13.470Z,9.719186
2022-10-22T00:10:13.364Z,9.719143
2022-10-22T00:11:13.349Z,9.719232
2022-10-22T00:12:13.355Z,9.719211
2022-10-22T00:13:13.349Z,9.719188
2022-10-22T00:14:13.323Z,9.719230
2022-10-22T00:15:13.326Z,9.719210
2022-10-22T00:16:13.323Z,9.719177
2022-10-22T00:17:13.296Z,9.719267
2022-10-22T00:18:13.287Z,9.719244
2022-10-22T00:19:13.273Z,9.719378
2022-10-22T00:20:13.261Z,9.719300
2022-10-22T00:21:13.271Z,9.719363
2022-10-22T00:22:13.241Z,9.719301
2022-10-22T00:23:13.249Z,9.719298
2022-10-22T00:24:13.217Z,9.719200
2022-10-22T00:25:13.219Z,9.719256
2022-10-22T00:26:13.210Z,9.719233
2022-10-22T00:27:13.191Z,9.719282
2022-10-22T00:28:13.205Z,9.719395
2022-10-22T00:29:13.169Z,9.719379
2022-10-22T00:30:13.158Z,9.719366
2022-10-22T00:31:13.160Z,9.719302
2022-10-22T00:32:13.138Z,9.719286
2022-10-22T00:33:13.136Z,9.719318
2022-10-22T00:34:13.135Z,9.719283
2022-10-22T00:35:13.122Z,9.719335
2022-10-22T00:36:13.168Z,9.719376
2022-10-22T00:37:13.086Z,9.719414
2022-10-22T00:38:13.093Z,9.719481
2022-10-22T00:39:13.076Z,9.719528
2022-10-22T00:40:13.064Z,9.719399
2022-10-22T00:41:13.078Z,9.719348
2022-10-22T00:42:13.042Z,9.719447
2022-10-22T00:43:13.038Z,9.719301
2022-10-22T00:44:13.025Z,9.718962
2022-10-22T00:45:13.014Z,9.718926
2022-10-22T00:46:12.996Z,9.719293
2022-10-22T00:47:13.018Z,9.719263
2022-10-22T00:48:12.979Z,9.719387
2022-10-22T00:49:12.985Z,9.719316
2022-10-22T00:50:12.999Z,9.719474
2022-10-22T00:51:12.969Z,9.719462
2022-10-22T00:52:12.957Z,9.719047
2022-10-22T00:53:12.936Z,9.719046
2022-10-22T00:54:12.930Z,9.719046
2022-10-22T00:55:12.929Z,9.719046
2022-10-22T00:56:12.916Z,9.719046
2022-10-22T00:57:12.895Z,9.719046
2022-10-22T00:58:12.883Z,9.719046
2022-10-22T00:59:12.878Z,9.719386
2022-10-22T01:00:12.865Z,9.719318
2022-10-22T01:01:12.905Z,9.719531
2022-10-22T01:02:12.840Z,9.719613
2022-10-22T01:03:12.829Z,9.719458
2022-10-22T01:04:12.839Z,9.719223
2022-10-22T01:05:12.854Z,9.719127
2022-10-22T01:06:12.831Z,9.719127
2022-10-22T01:07:12.797Z,9.719127
2022-10-22T01:08:12.788Z,9.719127
2022-10-22T01:09:12.774Z,9.719127
2022-10-22T01:10:12.770Z,9.719127
2022-10-22T01:11:12.755Z,9.719127
2022-10-22T01:12:12.760Z,9.719159
2022-10-22T01:13:12.758Z,9.719268
2022-10-22T01:14:12.748Z,9.719209
2022-10-22T01:15:12.716Z,9.719180
2022-10-22T01:16:12.724Z,9.719095
2022-10-22T01:17:12.732Z,9.719236
2022-10-22T01:18:12.685Z,9.719163
2022-10-22T01:19:12.701Z,9.719184
2022-10-22T01:20:12.668Z,9.719241
2022-10-22T01:21:12.666Z,9.719236
2022-10-22T01:22:12.653Z,9.719211
2022-10-22T01:23:12.640Z,9.719196
2022-10-22T01:24:12.637Z,9.719202
2022-10-22T01:25:12.653Z,9.719270
2022-10-22T01:26:12.649Z,9.719157
2022-10-22T01:27:12.612Z,9.719104
2022-10-22T01:28:12.605Z,9.719089
2022-10-22T01:29:12.592Z,9.719028
2022-10-22T01:30:12.592Z,9.719131
2022-10-22T01:31:12.576Z,9.719122
2022-10-22T01:32:12.556Z,9.719089
2022-10-22T01:33:12.547Z,9.719135
2022-10-22T01:34:12.528Z,9.719057
2022-10-22T01:35:12.571Z,9.719104
2022-10-22T01:36:12.514Z,9.719152
2022-10-22T01:37:12.504Z,9.719129
2022-10-22T01:38:12.501Z,9.719178
2022-10-22T01:39:12.473Z,9.719184
2022-10-22T01:40:12.511Z,9.719157
2022-10-22T01:41:12.473Z,9.719110
2022-10-22T01:42:12.443Z,9.719081
2022-10-22T01:43:12.445Z,9.719090
2022-10-22T01:44:12.432Z,9.719125
2022-10-22T01:45:12.429Z,9.719176
2022-10-22T01:46:12.416Z,9.719188
2022-10-22T01:47:12.406Z,9.719232
2022-10-22T01:48:12.401Z,9.719280
2022-10-22T01:49:12.381Z,9.719252
2022-10-22T01:50:12.394Z,9.719205
2022-10-22T01:51:12.386Z,9.719143
2022-10-22T01:52:12.348Z,9.719176
2022-10-22T01:53:12.350Z,9.719288
2022-10-22T01:54:12.330Z,9.719183
2022-10-22T01:55:12.312Z,9.719073
2022-10-22T01:56:12.327Z,9.719021
2022-10-22T01:57:12.300Z,9.719047
2022-10-22T01:58:12.301Z,9.719096
2022-10-22T01:59:12.286Z,9.718892
2022-10-22T02:00:12.272Z,9.719083
2022-10-22T02:01:12.332Z,9.719013
2022-10-22T02:02:12.255Z,9.719098
2022-10-22T02:03:13.244Z,9.719158
2022-10-22T02:04:12.236Z,9.719069
2022-10-22T02:05:12.246Z,9.719031
2022-10-22T02:06:12.209Z,9.719104
2022-10-22T02:07:12.197Z,9.719126
2022-10-22T02:08:12.185Z,9.719066
2022-10-22T02:09:12.223Z,9.719015
2022-10-22T02:10:12.190Z,9.719009
2022-10-22T02:11:12.153Z,9.719169
2022-10-22T02:12:12.157Z,9.719191
2022-10-22T02:13:12.158Z,9.719122
2022-10-22T02:14:12.128Z,9.719116
2022-10-22T02:15:12.118Z,9.719095
2022-10-22T02:16:12.123Z,9.719081
2022-10-22T02:17:12.104Z,9.719045
2022-10-22T02:18:12.101Z,9.719060
2022-10-22T02:19:12.079Z,9.719090
2022-10-22T02:20:12.076Z,9.719069
2022-10-22T02:21:12.083Z,9.719163
2022-10-22T02:22:12.047Z,9.719125
2022-10-22T02:23:12.039Z,9.719153
2022-10-22T02:24:12.027Z,9.719159
2022-10-22T02:25:12.019Z,9.719132
2022-10-22T02:26:12.046Z,9.719192
2022-10-22T02:27:12.010Z,9.719183
2022-10-22T02:28:11.998Z,9.719217
2022-10-22T02:29:11.975Z,9.719221
2022-10-22T02:30:12.030Z,9.719293
2022-10-22T02:31:11.983Z,9.719247
2022-10-22T02:32:11.960Z,9.719209
2022-10-22T02:33:11.957Z,9.719207
2022-10-22T02:34:11.955Z,9.719097
2022-10-22T02:35:11.923Z,9.719199
2022-10-22T02:36:11.939Z,9.719173
2022-10-22T02:37:11.908Z,9.719143
2022-10-22T02:38:12.027Z,9.719141
2022-10-22T02:39:11.906Z,9.719173
2022-10-22T02:40:11.862Z,9.719173
2022-10-22T02:41:11.851Z,9.719078
2022-10-22T02:42:11.870Z,9.719159
2022-10-22T02:43:11.856Z,9.719136
2022-10-22T02:44:11.832Z,9.719207
2022-10-22T02:45:11.888Z,9.719129
2022-10-22T02:46:11.822Z,9.719122
2022-10-22T02:47:11.805Z,9.719251
2022-10-22T02:48:11.872Z,9.719121
2022-10-22T02:49:11.791Z,9.719145
2022-10-22T02:50:11.797Z,9.719158
2022-10-22T02:51:43.665Z,9.719155
2022-10-22T02:52:11.771Z,9.718971
2022-10-22T02:53:11.754Z,9.718959
2022-10-22T02:54:11.738Z,9.719057
2022-10-22T02:55:11.718Z,9.719086
2022-10-22T02:56:11.716Z,9.719076
2022-10-22T02:57:11.761Z,9.719107
2022-10-22T02:58:11.717Z,9.719022
2022-10-22T02:59:11.690Z,9.718984
2022-10-22T03:00:11.695Z,9.719040
2022-10-22T03:01:15.215Z,9.719136
2022-10-22T03:02:11.650Z,9.719202
2022-10-22T03:03:11.643Z,9.719149
2022-10-22T03:04:11.660Z,9.719160
2022-10-22T03:05:11.620Z,9.719141
2022-10-22T03:06:11.682Z,9.719061
2022-10-22T03:07:11.605Z,9.719019
2022-10-22T03:08:11.589Z,9.719131
2022-10-22T03:09:12.622Z,9.719140
2022-10-22T03:10:11.568Z,9.719080
2022-10-22T03:11:11.563Z,9.719087
2022-10-22T03:12:11.554Z,9.719135
2022-10-22T03:13:11.548Z,9.719137
2022-10-22T03:14:11.547Z,9.719139
2022-10-22T03:15:11.540Z,9.719193
2022-10-22T03:16:11.513Z,9.719154
2022-10-22T03:17:11.504Z,9.719163
2022-10-22T03:18:11.504Z,9.719174
2022-10-22T03:19:11.546Z,9.719328
2022-10-22T03:20:11.485Z,9.719310
2022-10-22T03:21:11.491Z,9.719258
2022-10-22T03:22:11.460Z,9.719245
2022-10-22T03:23:11.451Z,9.719334
2022-10-22T03:24:11.463Z,9.719381
2022-10-22T03:25:11.437Z,9.719307
2022-10-22T03:26:11.433Z,9.719254
2022-10-22T03:27:11.416Z,9.719156
2022-10-22T03:28:11.405Z,9.719094
2022-10-22T03:29:11.394Z,9.719139
2022-10-22T03:30:11.378Z,9.719190
2022-10-22T03:31:11.366Z,9.719125
2022-10-22T03:32:11.353Z,9.719110
2022-10-22T03:33:11.369Z,9.719149
2022-10-22T03:34:11.329Z,9.719190
2022-10-22T03:35:11.338Z,9.719192
2022-10-22T03:36:11.316Z,9.719276
2022-10-22T03:37:11.324Z,9.719312
2022-10-22T03:38:11.275Z,9.719272
2022-10-22T03:39:11.281Z,9.719272
2022-10-22T03:40:11.282Z,9.719243
2022-10-22T03:41:11.242Z,9.719165
2022-10-22T03:42:12.263Z,9.719151
2022-10-22T03:43:11.231Z,9.719131
2022-10-22T03:44:11.229Z,9.719156
2022-10-22T03:45:11.224Z,9.719184
2022-10-22T03:46:12.206Z,9.719218
2022-10-22T03:47:11.216Z,9.719076
2022-10-22T03:48:11.221Z,9.718959
2022-10-22T03:49:11.173Z,9.719069
2022-10-22T03:50:11.164Z,9.718981
2022-10-22T03:51:11.154Z,9.719031
2022-10-22T03:52:11.153Z,9.718976
2022-10-22T03:53:11.130Z,9.719122
2022-10-22T03:54:11.143Z,9.718821
2022-10-22T03:55:11.132Z,9.718968
2022-10-22T03:56:11.111Z,9.718952
2022-10-22T03:57:11.120Z,9.719007
2022-10-22T03:58:11.114Z,9.719154
2022-10-22T03:59:11.071Z,9.719066
2022-10-22T04:00:11.058Z,9.719131
2022-10-22T04:01:11.120Z,9.719032
2022-10-22T04:02:11.045Z,9.718851
2022-10-22T04:03:11.051Z,9.718792
2022-10-22T04:04:11.016Z,9.719222
2022-10-22T04:05:11.086Z,9.719304
2022-10-22T04:06:11.011Z,9.719028
2022-10-22T04:07:10.999Z,9.718922
2022-10-22T04:08:10.997Z,9.718775
2022-10-22T04:09:11.017Z,9.719195
2022-10-22T04:10:10.967Z,9.719261
2022-10-22T04:11:10.944Z,9.719340
2022-10-22T04:12:10.953Z,9.718808
2022-10-22T04:13:10.941Z,9.718928
2022-10-22T04:14:10.928Z,9.718984
2022-10-22T04:15:10.914Z,9.719102
2022-10-22T04:16:10.923Z,9.719418
2022-10-22T04:17:10.899Z,9.719152
2022-10-22T04:18:10.890Z,9.718861
2022-10-22T04:19:10.870Z,9.718910
2022-10-22T04:20:10.861Z,9.719206
2022-10-22T04:21:10.859Z,9.719193
2022-10-22T04:22:10.868Z,9.719449
2022-10-22T04:23:10.829Z,9.719161
2022-10-22T04:24:10.820Z,9.719140
2022-10-22T04:25:10.818Z,9.719193
2022-10-22T04:26:10.807Z,9.719357
2022-10-22T04:27:10.816Z,9.719078
2022-10-22T04:28:10.783Z,9.719028
2022-10-22T04:29:13.575Z,9.719054
2022-10-22T04:30:11.762Z,9.719075
2022-10-22T04:31:10.759Z,9.719076
2022-10-22T04:32:10.745Z,9.719196
2022-10-22T04:33:10.746Z,9.719250
2022-10-22T04:34:10.733Z,9.719255
2022-10-22T04:35:10.713Z,9.719164
2022-10-22T04:36:10.702Z,9.719216
2022-10-22T04:37:10.718Z,9.719123
2022-10-22T04:38:10.680Z,9.719179
2022-10-22T04:39:10.671Z,9.719052
2022-10-22T04:40:10.666Z,9.719072
2022-10-22T04:41:10.670Z,9.719169
2022-10-22T04:42:10.670Z,9.719331
2022-10-22T04:43:10.635Z,9.718999
2022-10-22T04:44:13.635Z,9.719017
2022-10-22T04:45:11.623Z,9.719110
2022-10-22T04:46:10.609Z,9.719124
2022-10-22T04:47:10.602Z,9.719135
2022-10-22T04:48:10.600Z,9.718636
2022-10-22T04:49:10.577Z,9.719270
2022-10-22T04:50:10.580Z,9.719347
2022-10-22T04:51:10.614Z,9.719338
2022-10-22T04:52:10.542Z,9.719413
2022-10-22T04:53:10.527Z,9.719380
2022-10-22T04:54:10.514Z,9.719586
2022-10-22T04:55:10.511Z,9.719780
2022-10-22T04:56:10.520Z,9.719684
2022-10-22T04:57:10.507Z,9.719130
2022-10-22T04:58:10.479Z,9.719214
2022-10-22T04:59:10.476Z,9.719142
2022-10-22T05:00:10.467Z,9.719221
2022-10-22T05:01:10.562Z,9.719189
2022-10-22T05:02:10.462Z,9.719312
2022-10-22T05:03:10.431Z,9.719130
2022-10-22T05:04:10.434Z,9.719142
2022-10-22T05:05:10.410Z,9.719140
2022-10-22T05:06:10.435Z,9.719019
2022-10-22T05:07:10.406Z,9.719140
2022-10-22T05:08:10.410Z,9.719146
2022-10-22T05:09:10.493Z,9.719329
2022-10-22T05:10:10.378Z,9.719404
2022-10-22T05:11:10.366Z,9.719116
2022-10-22T05:12:10.383Z,9.719045
2022-10-22T05:13:10.349Z,9.719064
2022-10-22T05:14:10.322Z,9.719176
2022-10-22T05:15:10.308Z,9.719077
2022-10-22T05:16:10.309Z,9.719131
2022-10-22T05:17:10.311Z,9.719089
2022-10-22T05:18:10.278Z,9.719211
2022-10-22T05:19:10.265Z,9.719074
2022-10-22T05:20:10.283Z,9.719207
2022-10-22T05:21:10.248Z,9.719106
2022-10-22T05:22:11.224Z,9.719174
2022-10-22T05:23:11.251Z,9.719402
2022-10-22T05:24:10.220Z,9.719608
2022-10-22T05:25:10.211Z,9.719467
2022-10-22T05:26:10.197Z,9.719298
2022-10-22T05:27:10.225Z,9.719355
2022-10-22T05:28:10.197Z,9.719295
2022-10-22T05:29:10.165Z,9.719090
2022-10-22T05:30:10.163Z,9.719092
2022-10-22T05:31:10.159Z,9.719235
2022-10-22T05:32:10.133Z,9.719255
2022-10-22T05:33:10.144Z,9.719134
2022-10-22T05:34:10.112Z,9.719086
2022-10-22T05:35:10.109Z,9.719000
2022-10-22T05:36:10.112Z,9.719053
2022-10-22T05:37:10.089Z,9.719168
2022-10-22T05:38:10.073Z,9.719219
2022-10-22T05:39:10.075Z,9.719201
2022-10-22T05:40:19.505Z,9.719219
2022-10-22T05:41:12.079Z,9.719204
2022-10-22T05:42:10.032Z,9.719051
2022-10-22T05:43:10.033Z,9.719087
2022-10-22T05:44:10.012Z,9.719037
2022-10-22T05:45:10.016Z,9.719130
2022-10-22T05:46:10.076Z,9.719120
2022-10-22T05:47:09.992Z,9.718965
2022-10-22T05:48:09.962Z,9.718963
2022-10-22T05:49:09.957Z,9.719080
2022-10-22T05:50:09.966Z,9.718966
2022-10-22T05:51:09.969Z,9.719103
2022-10-22T05:52:09.929Z,9.719070
2022-10-22T05:53:09.917Z,9.719136
2022-10-22T05:54:09.940Z,9.719063
2022-10-22T05:55:09.898Z,9.719128
2022-10-22T05:56:09.892Z,9.719148
2022-10-22T05:57:09.904Z,9.719057
2022-10-22T05:58:09.863Z,9.719046
2022-10-22T05:59:09.855Z,9.719129
2022-10-22T06:00:12.832Z,9.719092
2022-10-22T06:01:09.850Z,9.719185
2022-10-22T06:02:09.911Z,9.719119
2022-10-22T06:03:09.819Z,9.719090
2022-10-22T06:04:09.806Z,9.719163
2022-10-22T06:05:09.805Z,9.719283
2022-10-22T06:06:09.789Z,9.719224
2022-10-22T06:07:09.797Z,9.719191
2022-10-22T06:08:09.779Z,9.719095
2022-10-22T06:09:09.794Z,9.719083
2022-10-22T06:10:09.738Z,9.719103
2022-10-22T06:11:09.771Z,9.719208
2022-10-22T06:12:09.731Z,9.719252
2022-10-22T06:13:09.726Z,9.719274
2022-10-22T06:14:09.718Z,9.719269
2022-10-22T06:15:09.759Z,9.719303
2022-10-22T06:16:09.691Z,9.719249
2022-10-22T06:17:09.674Z,9.719164
2022-10-22T06:18:09.686Z,9.719329
2022-10-22T06:19:09.681Z,9.719624
2022-10-22T06:20:09.655Z,9.719665
2022-10-22T06:21:09.662Z,9.719502
2022-10-22T06:22:09.654Z,9.719496
2022-10-22T06:23:09.624Z,9.719733
2022-10-22T06:24:09.611Z,9.719339
2022-10-22T06:25:09.598Z,9.719469
2022-10-22T06:26:09.607Z,9.719736
2022-10-22T06:27:09.580Z,9.719714
2022-10-22T06:28:09.572Z,9.719909
2022-10-22T06:29:09.571Z,9.719859
2022-10-22T06:30:09.557Z,9.719859
2022-10-22T06:31:09.578Z,9.719859
2022-10-22T06:32:09.542Z,9.719638
2022-10-22T06:33:09.519Z,9.719953
2022-10-22T06:34:09.509Z,9.720273
2022-10-22T06:35:09.504Z,9.719970
2022-10-22T06:36:09.526Z,9.719864
2022-10-22T06:37:09.495Z,9.719864
2022-10-22T06:38:09.474Z,9.719397
2022-10-22T06:39:09.499Z,9.719495
2022-10-22T06:40:09.468Z,9.719715
2022-10-22T06:41:09.446Z,9.719326
2022-10-22T06:42:09.439Z,9.719258
2022-10-22T06:43:09.426Z,9.719620
2022-10-22T06:44:09.439Z,9.719991
2022-10-22T06:45:09.429Z,9.719795
2022-10-22T06:46:09.393Z,9.719550
2022-10-22T06:47:09.386Z,9.719250
2022-10-22T06:48:09.381Z,9.719244
2022-10-22T06:49:09.390Z,9.719151
2022-10-22T06:50:09.389Z,9.719205
2022-10-22T06:51:09.358Z,9.719151
2022-10-22T06:52:09.339Z,9.719159
2022-10-22T06:53:09.360Z,9.719109
2022-10-22T06:54:09.334Z,9.719146
2022-10-22T06:55:09.302Z,9.719129
2022-10-22T06:56:09.307Z,9.719196
2022-10-22T06:57:09.314Z,9.719147
2022-10-22T06:58:09.277Z,9.719171
2022-10-22T06:59:09.272Z,9.719185
2022-10-22T07:00:09.256Z,9.719131
2022-10-22T07:01:09.353Z,9.719187
2022-10-22T07:02:09.236Z,9.719191
2022-10-22T07:03:09.233Z,9.719079
2022-10-22T07:04:09.229Z,9.719063
2022-10-22T07:05:09.219Z,9.719149
2022-10-22T07:06:09.221Z,9.719151
2022-10-22T07:07:09.186Z,9.719184
2022-10-22T07:08:09.199Z,9.719185
2022-10-22T07:09:09.280Z,9.719080
2022-10-22T07:10:09.219Z,9.719065
2022-10-22T07:11:09.142Z,9.719085
2022-10-22T07:12:09.132Z,9.719114
2022-10-22T07:13:09.159Z,9.719157
2022-10-22T07:14:09.120Z,9.718913
2022-10-22T07:15:09.104Z,9.719105
2022-10-22T07:16:09.114Z,9.719183
2022-10-22T07:17:09.111Z,9.719303
2022-10-22T07:18:09.073Z,9.719302
2022-10-22T07:19:09.064Z,9.719189
2022-10-22T07:20:09.056Z,9.719143
2022-10-22T07:21:09.042Z,9.719303
2022-10-22T07:22:09.069Z,9.719252
2022-10-22T07:23:09.023Z,9.719182
2022-10-22T07:24:09.062Z,9.719232
2022-10-22T07:25:09.009Z,9.719093
2022-10-22T07:26:09.015Z,9.719034
2022-10-22T07:27:10.974Z,9.719099
2022-10-22T07:28:08.994Z,9.719051
2022-10-22T07:29:08.966Z,9.719119
2022-10-22T07:30:08.954Z,9.719138
2022-10-22T07:31:08.954Z,9.719116
2022-10-22T07:32:08.951Z,9.719309
2022-10-22T07:33:08.936Z,9.719554
2022-10-22T07:34:08.974Z,9.719202
2022-10-22T07:35:08.910Z,9.719243
2022-10-22T07:36:08.897Z,9.719194
2022-10-22T07:37:08.904Z,9.719218
2022-10-22T07:38:08.881Z,9.719069
2022-10-22T07:39:08.861Z,9.719130
2022-10-22T07:40:08.868Z,9.719103
2022-10-22T07:41:08.874Z,9.719146
2022-10-22T07:42:08.839Z,9.719188
2022-10-22T07:43:08.836Z,9.719349
2022-10-22T07:44:08.823Z,9.719403
2022-10-22T07:45:08.827Z,9.719464
2022-10-22T07:46:08.836Z,9.719298
2022-10-22T07:47:08.800Z,9.719315
2022-10-22T07:48:08.780Z,9.719037
2022-10-22T07:49:08.766Z,9.719243
2022-10-22T07:50:08.777Z,9.719181
2022-10-22T07:51:08.790Z,9.719269
2022-10-22T07:52:08.763Z,9.719198
2022-10-22T07:53:08.741Z,9.719228
2022-10-22T07:54:08.760Z,9.719165
2022-10-22T07:55:08.729Z,9.719144
2022-10-22T07:56:08.701Z,9.719082
2022-10-22T07:57:08.717Z,9.719009
2022-10-22T07:58:08.692Z,9.719029
2022-10-22T07:59:08.664Z,9.718981
2022-10-22T08:00:08.656Z,9.719055
2022-10-22T08:01:08.716Z,9.719077
2022-10-22T08:02:08.670Z,9.719074
2022-10-22T08:03:08.636Z,9.719029
2022-10-22T08:04:08.638Z,9.718995
2022-10-22T08:05:08.613Z,9.719008
2022-10-22T08:06:08.601Z,9.719039
2022-10-22T08:07:08.583Z,9.719074
2022-10-22T08:08:08.577Z,9.719090
2022-10-22T08:09:08.641Z,9.719017
2022-10-22T08:10:08.577Z,9.719086
2022-10-22T08:11:08.641Z,9.719059
2022-10-22T08:12:08.542Z,9.719018
2022-10-22T08:13:08.558Z,9.719048
2022-10-22T08:14:08.542Z,9.719003
2022-10-22T08:15:08.525Z,9.719047
2022-10-22T08:16:08.529Z,9.719058
2022-10-22T08:17:08.488Z,9.719083
2022-10-22T08:18:08.487Z,9.719046
2022-10-22T08:19:08.506Z,9.719159
2022-10-22T08:20:08.461Z,9.719043
2022-10-22T08:21:08.545Z,9.719067
2022-10-22T08:22:08.462Z,9.719156
2022-10-22T08:23:08.448Z,9.719173
2022-10-22T08:24:08.443Z,9.719171
2022-10-22T08:25:08.446Z,9.719096
2022-10-22T08:26:08.417Z,9.719193
2022-10-22T08:27:08.406Z,9.719135
2022-10-22T08:28:08.383Z,9.719227
2022-10-22T08:29:08.391Z,9.719143
2022-10-22T08:30:08.406Z,9.719147
2022-10-22T08:31:08.443Z,9.719196
2022-10-22T08:32:08.362Z,9.719157
2022-10-22T08:33:08.334Z,9.719075
2022-10-22T08:34:08.349Z,9.719093
2022-10-22T08:35:08.353Z,9.719109
2022-10-22T08:36:08.315Z,9.719011
2022-10-22T08:37:08.290Z,9.719092
2022-10-22T08:38:08.288Z,9.719127
2022-10-22T08:39:08.266Z,9.719034
2022-10-22T08:40:08.277Z,9.719126
2022-10-22T08:41:08.265Z,9.719157
2022-10-22T08:42:08.236Z,9.718985
2022-10-22T08:43:08.233Z,9.719097
2022-10-22T08:44:08.234Z,9.719133
2022-10-22T08:45:08.237Z,9.719206
2022-10-22T08:46:08.208Z,9.719343
2022-10-22T08:47:08.193Z,9.719127
2022-10-22T08:48:08.178Z,9.719145
2022-10-22T08:50:08.195Z,9.719352
2022-10-22T08:51:40.055Z,9.719239
2022-10-22T08:52:08.144Z,9.719413
2022-10-22T08:53:08.129Z,9.719455
2022-10-22T08:54:08.131Z,9.719473
2022-10-22T08:55:08.108Z,9.719407
2022-10-22T08:56:08.127Z,9.719398
2022-10-22T08:57:08.089Z,9.719423
2022-10-22T08:58:08.096Z,9.719634
2022-10-22T08:59:08.069Z,9.719223
2022-10-22T09:00:08.061Z,9.719123
2022-10-22T09:01:08.047Z,9.719330
2022-10-22T09:02:08.040Z,9.719196
2022-10-22T09:03:08.064Z,9.719296
2022-10-22T09:04:08.017Z,9.719270
2022-10-22T09:05:11.510Z,9.719350
2022-10-22T09:06:09.007Z,9.719475
2022-10-22T09:07:08.008Z,9.719444
2022-10-22T09:08:07.991Z,9.719460
2022-10-22T09:09:08.038Z,9.719277
2022-10-22T09:10:08.962Z,9.719313
2022-10-22T09:11:07.951Z,9.719368
2022-10-22T09:12:07.952Z,9.719360
2022-10-22T09:13:07.936Z,9.719154
2022-10-22T09:14:07.966Z,9.719136
2022-10-22T09:15:07.916Z,9.719260
2022-10-22T09:16:07.900Z,9.719293
2022-10-22T09:17:07.893Z,9.719384
2022-10-22T09:18:07.888Z,9.719508
2022-10-22T09:19:07.900Z,9.719485
2022-10-22T09:20:07.867Z,9.719328
2022-10-22T09:21:07.852Z,9.719289
2022-10-22T09:22:07.830Z,9.719352
2022-10-22T09:23:07.836Z,9.719256
2022-10-22T09:24:07.848Z,9.719386
2022-10-22T09:25:07.834Z,9.719428
2022-10-22T09:26:07.799Z,9.719319
2022-10-22T09:27:07.792Z,9.719451
2022-10-22T09:28:07.789Z,9.719264
2022-10-22T09:29:07.776Z,9.719339
2022-10-22T09:30:07.807Z,9.719452
2022-10-22T09:31:07.784Z,9.719388
2022-10-22T09:32:07.749Z,9.719294
2022-10-22T09:33:07.745Z,9.719333
2022-10-22T09:34:07.737Z,9.719337
2022-10-22T09:35:07.718Z,9.719399
2022-10-22T09:36:07.762Z,9.719218
2022-10-22T09:37:07.684Z,9.719298
2022-10-22T09:38:07.674Z,9.719172
2022-10-22T09:39:07.726Z,9.718884
2022-10-22T09:40:07.673Z,9.718882
2022-10-22T09:41:07.645Z,9.719170
2022-10-22T09:42:07.659Z,9.719258
2022-10-22T09:43:07.628Z,9.719360
2022-10-22T09:44:07.617Z,9.719241
2022-10-22T09:45:07.617Z,9.719239
2022-10-22T09:46:07.607Z,9.719225
2022-10-22T09:47:07.625Z,9.718946
2022-10-22T09:48:07.577Z,9.719098
2022-10-22T09:49:07.577Z,9.719230
2022-10-22T09:50:07.558Z,9.719279
2022-10-22T09:51:07.547Z,9.719387
2022-10-22T09:52:07.541Z,9.719364
2022-10-22T09:53:07.563Z,9.718977
2022-10-22T09:54:07.547Z,9.719193
2022-10-22T09:55:07.513Z,9.719174
2022-10-22T09:56:07.493Z,9.719162
2022-10-22T09:57:07.492Z,9.719213
2022-10-22T09:58:07.487Z,9.719256
2022-10-22T09:59:07.492Z,9.719193
2022-10-22T10:00:07.460Z,9.719291
2022-10-22T10:01:07.457Z,9.719245
2022-10-22T10:02:19.777Z,9.719258
2022-10-22T10:03:09.471Z,9.719357
2022-10-22T10:04:09.832Z,9.719455
2022-10-22T10:05:08.418Z,9.719466
2022-10-22T10:06:07.404Z,9.719492
2022-10-22T10:07:07.390Z,9.719494
2022-10-22T10:08:07.390Z,9.719319
2022-10-22T10:09:07.457Z,9.719131
2022-10-22T10:10:07.360Z,9.719248
2022-10-22T10:11:07.370Z,9.719317
2022-10-22T10:12:07.354Z,9.719284
2022-10-22T10:13:07.334Z,9.719337
2022-10-22T10:14:07.318Z,9.719211
2022-10-22T10:15:07.307Z,9.719363
2022-10-22T10:16:07.325Z,9.719308
2022-10-22T10:17:07.290Z,9.719257
2022-10-22T10:18:07.281Z,9.719213
2022-10-22T10:19:07.282Z,9.719300
2022-10-22T10:20:07.258Z,9.719285
2022-10-22T10:21:07.306Z,9.719274
2022-10-22T10:22:07.230Z,9.719276
2022-10-22T10:23:07.236Z,9.719272
2022-10-22T10:24:07.223Z,9.719287
2022-10-22T10:25:07.213Z,9.719308
2022-10-22T10:26:07.231Z,9.719234
2022-10-22T10:27:07.200Z,9.719243
2022-10-22T10:28:07.191Z,9.719296
2022-10-22T10:29:07.183Z,9.719295
2022-10-22T10:30:07.193Z,9.719402
2022-10-22T10:31:07.161Z,9.719234
2022-10-22T10:32:07.143Z,9.719182
2022-10-22T10:33:07.156Z,9.719316
2022-10-22T10:34:07.125Z,9.719282
2022-10-22T10:35:07.124Z,9.719317
2022-10-22T10:36:07.110Z,9.719251
2022-10-22T10:37:07.094Z,9.719323
2022-10-22T10:38:07.108Z,9.719267
2022-10-22T10:39:07.080Z,9.719283
2022-10-22T10:40:07.089Z,9.718933
2022-10-22T10:41:07.066Z,9.719069
2022-10-22T10:42:07.107Z,9.719409
2022-10-22T10:43:07.038Z,9.719049
2022-10-22T10:44:07.040Z,9.718836
2022-10-22T10:45:07.060Z,9.718958
2022-10-22T10:46:07.079Z,9.719171
2022-10-22T10:47:07.029Z,9.719250
2022-10-22T10:48:06.999Z,9.719337
2022-10-22T10:49:06.984Z,9.719123
2022-10-22T10:50:06.983Z,9.719183
2022-10-22T10:51:06.961Z,9.719286
2022-10-22T10:52:06.978Z,9.719088
2022-10-22T10:53:06.961Z,9.719177
2022-10-22T10:54:06.943Z,9.719195
2022-10-22T10:55:07.860Z,9.719368
2022-10-22T10:56:06.920Z,9.719275
2022-10-22T10:57:06.943Z,9.719224
2022-10-22T10:58:06.917Z,9.719210
2022-10-22T10:59:06.882Z,9.719110
2022-10-22T11:00:06.886Z,9.719099
2022-10-22T11:01:06.863Z,9.719172
2022-10-22T11:02:06.867Z,9.719241
2022-10-22T11:03:06.879Z,9.719256
2022-10-22T11:04:06.857Z,9.719246
2022-10-22T11:05:06.823Z,9.719252
2022-10-22T11:06:06.820Z,9.719223
2022-10-22T11:07:11.460Z,9.719209
2022-10-22T11:08:07.824Z,9.719162
2022-10-22T11:09:06.844Z,9.719178
2022-10-22T11:10:06.766Z,9.719191
2022-10-22T11:11:07.895Z,9.719140
2022-10-22T11:12:06.759Z,9.719140
2022-10-22T11:13:06.746Z,9.719229
2022-10-22T11:14:06.766Z,9.719229
2022-10-22T11:15:06.737Z,9.719185
2022-10-22T11:16:06.716Z,9.719157
2022-10-22T11:17:06.713Z,9.719194
2022-10-22T11:18:06.707Z,9.719184
2022-10-22T11:19:06.707Z,9.719251
2022-10-22T11:20:06.687Z,9.719252
2022-10-22T11:21:06.674Z,9.719164
2022-10-22T11:22:06.699Z,9.719214
2022-10-22T11:23:19.391Z,9.719269
2022-10-22T11:24:07.654Z,9.719338
2022-10-22T11:25:06.645Z,9.719291
2022-10-22T11:26:06.632Z,9.719345
2022-10-22T11:27:06.623Z,9.719459
2022-10-22T11:28:11.138Z,9.719399
2022-10-22T11:29:07.596Z,9.719283
2022-10-22T11:30:06.583Z,9.719457
2022-10-22T11:31:06.574Z,9.719387
2022-10-22T11:32:06.615Z,9.719532
2022-10-22T11:33:06.562Z,9.719371
2022-10-22T11:34:28.446Z,9.719382
2022-10-22T11:35:07.565Z,9.719401
2022-10-22T11:36:06.514Z,9.719404
2022-10-22T11:37:06.512Z,9.719372
2022-10-22T11:38:06.527Z,9.719460
2022-10-22T11:39:06.560Z,9.719476
2022-10-22T11:40:06.487Z,9.719481
2022-10-22T11:41:06.496Z,9.719520
2022-10-22T11:42:06.470Z,9.719375
2022-10-22T11:43:06.475Z,9.719369
2022-10-22T11:44:06.471Z,9.719427
2022-10-22T11:45:06.442Z,9.719421